sensor_id;sensor_type;location;lat;lon;timestamp;pressure;altitude;pressure_sealevel;temperature;humidity
74327;BME280;62745;51.060;13.786;2023-03-01T00:01:18;101704.13;;;-1.63;84.39
74327;BME280;62745;51.060;13.786;2023-03-01T00:03:44;101714.09;;;-1.37;82.92
74327;BME280;62745;51.060;13.786;2023-03-01T00:06:09;101713.34;;;-1.39;82.74
74327;BME280;62745;51.060;13.786;2023-03-01T00:08:35;101716.72;;;-2.06;84.53
74327;BME280;62745;51.060;13.786;2023-03-01T00:11:12;101717.00;;;-1.93;83.96
74327;BME280;62745;51.060;13.786;2023-03-01T00:13:37;101714.25;;;-2.26;85.22
74327;BME280;62745;51.060;13.786;2023-03-01T00:16:07;101716.06;;;-2.46;87.47
74327;BME280;62745;51.060;13.786;2023-03-01T00:18:33;101710.13;;;-2.13;86.11
74327;BME280;62745;51.060;13.786;2023-03-01T00:20:59;101705.47;;;-2.61;87.06
74327;BME280;62745;51.060;13.786;2023-03-01T00:23:25;101710.00;;;-2.84;88.78
74327;BME280;62745;51.060;13.786;2023-03-01T00:25:52;101704.63;;;-2.62;88.23
74327;BME280;62745;51.060;13.786;2023-03-01T00:28:18;101716.53;;;-2.37;87.78
74327;BME280;62745;51.060;13.786;2023-03-01T00:30:44;101712.94;;;-2.35;86.27
74327;BME280;62745;51.060;13.786;2023-03-01T00:33:09;101710.13;;;-2.87;87.27
74327;BME280;62745;51.060;13.786;2023-03-01T00:35:35;101711.38;;;-3.14;88.56
74327;BME280;62745;51.060;13.786;2023-03-01T00:38:00;101716.91;;;-3.01;90.15
74327;BME280;62745;51.060;13.786;2023-03-01T00:40:26;101705.31;;;-2.58;89.27
74327;BME280;62745;51.060;13.786;2023-03-01T00:42:52;101703.13;;;-2.13;86.66
74327;BME280;62745;51.060;13.786;2023-03-01T00:45:17;101706.09;;;-2.56;87.42
74327;BME280;62745;51.060;13.786;2023-03-01T00:47:43;101699.94;;;-2.55;87.86
74327;BME280;62745;51.060;13.786;2023-03-01T00:50:09;101694.72;;;-2.93;89.14
74327;BME280;62745;51.060;13.786;2023-03-01T00:52:34;101693.88;;;-3.12;89.59
74327;BME280;62745;51.060;13.786;2023-03-01T00:55:00;101685.41;;;-3.38;91.30
74327;BME280;62745;51.060;13.786;2023-03-01T00:57:25;101685.31;;;-3.55;91.37
74327;BME280;62745;51.060;13.786;2023-03-01T00:59:51;101692.78;;;-3.66;92.41
74327;BME280;62745;51.060;13.786;2023-03-01T01:02:20;101695.75;;;-3.75;92.34
74327;BME280;62745;51.060;13.786;2023-03-01T01:04:46;101702.09;;;-3.81;93.07
74327;BME280;62745;51.060;13.786;2023-03-01T01:07:11;101688.34;;;-3.06;92.22
74327;BME280;62745;51.060;13.786;2023-03-01T01:09:37;101694.16;;;-3.39;91.18
74327;BME280;62745;51.060;13.786;2023-03-01T01:12:03;101690.59;;;-3.56;92.10
74327;BME280;62745;51.060;13.786;2023-03-01T01:14:29;101694.00;;;-3.15;91.53
74327;BME280;62745;51.060;13.786;2023-03-01T01:16:54;101693.03;;;-2.94;90.91
74327;BME280;62745;51.060;13.786;2023-03-01T01:19:20;101697.63;;;-2.99;91.02
74327;BME280;62745;51.060;13.786;2023-03-01T01:21:45;101689.28;;;-2.88;90.43
74327;BME280;62745;51.060;13.786;2023-03-01T01:24:11;101680.66;;;-2.90;89.91
74327;BME280;62745;51.060;13.786;2023-03-01T01:26:37;101678.34;;;-2.96;89.89
74327;BME280;62745;51.060;13.786;2023-03-01T01:29:04;101682.63;;;-3.33;90.64
74327;BME280;62745;51.060;13.786;2023-03-01T01:31:30;101679.94;;;-3.31;91.47
74327;BME280;62745;51.060;13.786;2023-03-01T01:33:56;101674.53;;;-3.47;91.52
74327;BME280;62745;51.060;13.786;2023-03-01T01:36:22;101673.75;;;-3.70;92.92
74327;BME280;62745;51.060;13.786;2023-03-01T01:38:47;101675.84;;;-3.78;93.37
74327;BME280;62745;51.060;13.786;2023-03-01T01:41:14;101668.91;;;-3.19;91.42
74327;BME280;62745;51.060;13.786;2023-03-01T01:43:46;101662.84;;;-2.63;87.71
74327;BME280;62745;51.060;13.786;2023-03-01T01:46:32;101661.91;;;-2.26;87.34
74327;BME280;62745;51.060;13.786;2023-03-01T01:49:16;101668.66;;;-2.76;86.67
74327;BME280;62745;51.060;13.786;2023-03-01T01:51:44;101671.53;;;-3.19;88.76
74327;BME280;62745;51.060;13.786;2023-03-01T01:54:18;101656.03;;;-3.43;90.20
74327;BME280;62745;51.060;13.786;2023-03-01T01:56:52;101675.91;;;-3.59;90.37
74327;BME280;62745;51.060;13.786;2023-03-01T01:59:20;101646.53;;;-2.87;89.35
74327;BME280;62745;51.060;13.786;2023-03-01T02:01:49;101661.09;;;-2.82;88.48
74327;BME280;62745;51.060;13.786;2023-03-01T02:04:14;101654.66;;;-2.93;87.30
74327;BME280;62745;51.060;13.786;2023-03-01T02:06:46;101659.38;;;-3.20;89.14
74327;BME280;62745;51.060;13.786;2023-03-01T02:09:16;101649.47;;;-3.51;89.87
74327;BME280;62745;51.060;13.786;2023-03-01T02:11:43;101657.59;;;-3.39;91.08
74327;BME280;62745;51.060;13.786;2023-03-01T02:14:09;101655.81;;;-2.99;89.96
74327;BME280;62745;51.060;13.786;2023-03-01T02:16:35;101641.16;;;-2.65;87.38
74327;BME280;62745;51.060;13.786;2023-03-01T02:19:00;101648.16;;;-2.66;86.44
74327;BME280;62745;51.060;13.786;2023-03-01T02:24:40;101641.91;;;-3.39;88.72
74327;BME280;62745;51.060;13.786;2023-03-01T02:27:10;101630.22;;;-3.11;88.54
74327;BME280;62745;51.060;13.786;2023-03-01T02:29:37;101623.09;;;-3.08;88.30
74327;BME280;62745;51.060;13.786;2023-03-01T02:32:03;101631.13;;;-3.50;88.93
74327;BME280;62745;51.060;13.786;2023-03-01T02:34:31;101630.00;;;-3.83;90.47
74327;BME280;62745;51.060;13.786;2023-03-01T02:37:00;101618.66;;;-4.03;91.78
74327;BME280;62745;51.060;13.786;2023-03-01T02:39:30;101616.41;;;-4.12;91.68
74327;BME280;62745;51.060;13.786;2023-03-01T02:41:57;101625.16;;;-4.13;92.05
74327;BME280;62745;51.060;13.786;2023-03-01T02:44:24;101632.28;;;-3.57;90.66
74327;BME280;62745;51.060;13.786;2023-03-01T02:46:52;101612.63;;;-3.84;90.32
74327;BME280;62745;51.060;13.786;2023-03-01T02:49:30;101618.78;;;-3.46;88.54
74327;BME280;62745;51.060;13.786;2023-03-01T02:52:14;101625.16;;;-3.53;89.78
74327;BME280;62745;51.060;13.786;2023-03-01T02:54:47;101623.47;;;-3.94;89.58
74327;BME280;62745;51.060;13.786;2023-03-01T02:57:14;101626.59;;;-4.06;91.65
74327;BME280;62745;51.060;13.786;2023-03-01T02:59:40;101630.09;;;-3.66;91.08
74327;BME280;62745;51.060;13.786;2023-03-01T03:02:17;101619.06;;;-3.15;89.12
74327;BME280;62745;51.060;13.786;2023-03-01T03:04:45;101616.03;;;-3.24;88.65
74327;BME280;62745;51.060;13.786;2023-03-01T03:07:10;101617.69;;;-3.61;87.97
74327;BME280;62745;51.060;13.786;2023-03-01T03:09:36;101609.47;;;-3.72;89.58
74327;BME280;62745;51.060;13.786;2023-03-01T03:12:01;101603.88;;;-4.04;89.66
74327;BME280;62745;51.060;13.786;2023-03-01T03:14:26;101612.69;;;-4.06;89.99
74327;BME280;62745;51.060;13.786;2023-03-01T03:16:52;101616.16;;;-3.85;90.45
74327;BME280;62745;51.060;13.786;2023-03-01T03:19:18;101618.56;;;-4.21;90.35
74327;BME280;62745;51.060;13.786;2023-03-01T03:21:43;101615.78;;;-3.39;88.86
74327;BME280;62745;51.060;13.786;2023-03-01T03:24:09;101583.19;;;-3.68;87.34
74327;BME280;62745;51.060;13.786;2023-03-01T03:26:34;101608.69;;;-3.74;88.34
74327;BME280;62745;51.060;13.786;2023-03-01T03:29:00;101606.78;;;-3.71;87.38
74327;BME280;62745;51.060;13.786;2023-03-01T03:31:26;101612.50;;;-3.81;87.95
74327;BME280;62745;51.060;13.786;2023-03-01T03:33:51;101616.41;;;-4.12;89.22
74327;BME280;62745;51.060;13.786;2023-03-01T03:36:21;101592.78;;;-3.49;88.18
74327;BME280;62745;51.060;13.786;2023-03-01T03:38:47;101592.09;;;-3.34;87.22
74327;BME280;62745;51.060;13.786;2023-03-01T03:41:13;101590.28;;;-3.71;87.07
74327;BME280;62745;51.060;13.786;2023-03-01T03:43:40;101596.34;;;-3.71;88.53
74327;BME280;62745;51.060;13.786;2023-03-01T03:46:08;101581.72;;;-3.17;86.73
74327;BME280;62745;51.060;13.786;2023-03-01T03:49:09;101592.56;;;-3.07;85.36
74327;BME280;62745;51.060;13.786;2023-03-01T03:51:35;101585.66;;;-3.08;84.50
74327;BME280;62745;51.060;13.786;2023-03-01T03:54:00;101580.50;;;-3.86;87.16
74327;BME280;62745;51.060;13.786;2023-03-01T03:56:25;101596.91;;;-4.24;87.93
74327;BME280;62745;51.060;13.786;2023-03-01T03:58:51;101591.03;;;-4.08;89.46
74327;BME280;62745;51.060;13.786;2023-03-01T04:01:16;101585.53;;;-4.43;89.44
74327;BME280;62745;51.060;13.786;2023-03-01T04:03:41;101599.28;;;-4.39;91.03
74327;BME280;62745;51.060;13.786;2023-03-01T04:06:11;101604.06;;;-4.08;89.87
74327;BME280;62745;51.060;13.786;2023-03-01T04:08:37;101604.16;;;-3.71;88.03
74327;BME280;62745;51.060;13.786;2023-03-01T04:11:04;101609.28;;;-3.88;89.11
74327;BME280;62745;51.060;13.786;2023-03-01T04:13:50;101620.06;;;-3.96;88.04
74327;BME280;62745;51.060;13.786;2023-03-01T04:16:17;101621.50;;;-4.29;89.36
74327;BME280;62745;51.060;13.786;2023-03-01T04:18:42;101615.41;;;-4.50;90.82
74327;BME280;62745;51.060;13.786;2023-03-01T04:21:10;101607.16;;;-4.19;91.29
74327;BME280;62745;51.060;13.786;2023-03-01T04:23:36;101606.25;;;-4.18;89.41
74327;BME280;62745;51.060;13.786;2023-03-01T04:26:02;101606.34;;;-4.21;89.69
74327;BME280;62745;51.060;13.786;2023-03-01T04:28:33;101605.94;;;-4.52;89.37
74327;BME280;62745;51.060;13.786;2023-03-01T04:31:05;101605.16;;;-4.76;90.73
74327;BME280;62745;51.060;13.786;2023-03-01T04:33:56;101613.00;;;-4.98;91.52
74327;BME280;62745;51.060;13.786;2023-03-01T04:36:24;101604.97;;;-5.16;91.66
74327;BME280;62745;51.060;13.786;2023-03-01T04:38:50;101599.53;;;-4.88;91.99
74327;BME280;62745;51.060;13.786;2023-03-01T04:41:18;101599.91;;;-4.12;88.96
74327;BME280;62745;51.060;13.786;2023-03-01T04:43:43;101598.00;;;-4.71;89.14
74327;BME280;62745;51.060;13.786;2023-03-01T04:46:11;101594.91;;;-4.17;89.18
74327;BME280;62745;51.060;13.786;2023-03-01T04:48:38;101581.09;;;-4.41;87.96
74327;BME280;62745;51.060;13.786;2023-03-01T04:51:04;101611.66;;;-4.65;89.23
74327;BME280;62745;51.060;13.786;2023-03-01T04:53:31;101607.16;;;-5.05;90.54
74327;BME280;62745;51.060;13.786;2023-03-01T04:55:57;101610.19;;;-5.16;91.34
74327;BME280;62745;51.060;13.786;2023-03-01T04:58:23;101618.22;;;-5.22;91.69
74327;BME280;62745;51.060;13.786;2023-03-01T05:00:49;101615.59;;;-5.22;92.44
74327;BME280;62745;51.060;13.786;2023-03-01T05:03:14;101619.13;;;-5.23;93.13
74327;BME280;62745;51.060;13.786;2023-03-01T05:05:44;101614.19;;;-5.07;92.62
74327;BME280;62745;51.060;13.786;2023-03-01T05:08:10;101617.03;;;-5.13;92.75
74327;BME280;62745;51.060;13.786;2023-03-01T05:10:45;101604.19;;;-4.96;93.39
74327;BME280;62745;51.060;13.786;2023-03-01T05:13:12;101610.00;;;-5.11;92.62
74327;BME280;62745;51.060;13.786;2023-03-01T05:15:53;101608.03;;;-5.28;92.78
74327;BME280;62745;51.060;13.786;2023-03-01T05:18:18;101603.50;;;-5.23;93.12
74327;BME280;62745;51.060;13.786;2023-03-01T05:20:44;101591.94;;;-5.37;92.10
74327;BME280;62745;51.060;13.786;2023-03-01T05:23:09;101604.25;;;-5.42;92.57
74327;BME280;62745;51.060;13.786;2023-03-01T05:25:35;101594.19;;;-5.52;92.92
74327;BME280;62745;51.060;13.786;2023-03-01T05:28:05;101602.72;;;-5.48;94.05
74327;BME280;62745;51.060;13.786;2023-03-01T05:30:34;101599.66;;;-5.59;93.37
74327;BME280;62745;51.060;13.786;2023-03-01T05:32:59;101591.50;;;-5.73;94.01
74327;BME280;62745;51.060;13.786;2023-03-01T05:35:25;101600.09;;;-5.71;93.71
74327;BME280;62745;51.060;13.786;2023-03-01T05:37:51;101589.28;;;-4.92;92.51
74327;BME280;62745;51.060;13.786;2023-03-01T05:40:19;101576.88;;;-4.23;90.26
74327;BME280;62745;51.060;13.786;2023-03-01T05:42:50;101575.34;;;-4.69;88.84
74327;BME280;62745;51.060;13.786;2023-03-01T05:45:16;101588.63;;;-4.13;87.60
74327;BME280;62745;51.060;13.786;2023-03-01T05:47:43;101570.47;;;-3.96;86.74
74327;BME280;62745;51.060;13.786;2023-03-01T05:52:39;101568.06;;;-3.61;84.22
74327;BME280;62745;51.060;13.786;2023-03-01T05:55:04;101588.28;;;-3.46;83.82
74327;BME280;62745;51.060;13.786;2023-03-01T05:57:32;101588.41;;;-3.30;83.61
74327;BME280;62745;51.060;13.786;2023-03-01T05:59:57;101582.41;;;-3.32;82.73
74327;BME280;62745;51.060;13.786;2023-03-01T06:02:23;101592.94;;;-3.34;83.16
74327;BME280;62745;51.060;13.786;2023-03-01T06:04:49;101592.66;;;-3.27;83.00
74327;BME280;62745;51.060;13.786;2023-03-01T06:07:14;101586.44;;;-3.44;83.23
74327;BME280;62745;51.060;13.786;2023-03-01T06:09:39;101596.25;;;-3.49;83.01
74327;BME280;62745;51.060;13.786;2023-03-01T06:12:04;101594.13;;;-3.41;83.02
74327;BME280;62745;51.060;13.786;2023-03-01T06:14:30;101585.13;;;-3.54;83.50
74327;BME280;62745;51.060;13.786;2023-03-01T06:16:55;101591.03;;;-3.49;84.22
74327;BME280;62745;51.060;13.786;2023-03-01T06:19:20;101593.72;;;-3.31;84.74
74327;BME280;62745;51.060;13.786;2023-03-01T06:21:45;101562.69;;;-3.39;82.75
74327;BME280;62745;51.060;13.786;2023-03-01T06:24:11;101594.19;;;-3.23;81.87
74327;BME280;62745;51.060;13.786;2023-03-01T06:26:36;101593.84;;;-3.16;81.74
74327;BME280;62745;51.060;13.786;2023-03-01T06:29:02;101598.56;;;-3.05;80.70
74327;BME280;62745;51.060;13.786;2023-03-01T06:31:27;101599.63;;;-2.90;81.23
74327;BME280;62745;51.060;13.786;2023-03-01T06:33:52;101615.81;;;-3.01;80.73
74327;BME280;62745;51.060;13.786;2023-03-01T06:36:18;101579.22;;;-3.20;81.31
74327;BME280;62745;51.060;13.786;2023-03-01T06:38:46;101604.53;;;-3.01;80.57
74327;BME280;62745;51.060;13.786;2023-03-01T06:41:11;101614.13;;;-3.02;80.86
74327;BME280;62745;51.060;13.786;2023-03-01T06:43:36;101604.16;;;-2.94;81.56
74327;BME280;62745;51.060;13.786;2023-03-01T06:46:05;101615.88;;;-2.84;81.36
74327;BME280;62745;51.060;13.786;2023-03-01T06:48:32;101612.84;;;-2.93;81.27
74327;BME280;62745;51.060;13.786;2023-03-01T06:50:59;101605.63;;;-3.07;82.20
74327;BME280;62745;51.060;13.786;2023-03-01T06:53:26;101609.75;;;-3.01;82.60
74327;BME280;62745;51.060;13.786;2023-03-01T06:55:55;101616.66;;;-2.82;82.25
74327;BME280;62745;51.060;13.786;2023-03-01T06:58:21;101603.56;;;-2.82;81.62
74327;BME280;62745;51.060;13.786;2023-03-01T07:00:46;101604.59;;;-2.67;81.68
74327;BME280;62745;51.060;13.786;2023-03-01T07:03:11;101604.91;;;-2.56;81.41
74327;BME280;62745;51.060;13.786;2023-03-01T07:05:37;101600.53;;;-2.55;80.91
74327;BME280;62745;51.060;13.786;2023-03-01T07:08:02;101591.38;;;-2.64;81.50
74327;BME280;62745;51.060;13.786;2023-03-01T07:10:27;101607.69;;;-2.42;82.51
74327;BME280;62745;51.060;13.786;2023-03-01T07:12:56;101606.78;;;-2.40;82.33
74327;BME280;62745;51.060;13.786;2023-03-01T07:15:22;101605.69;;;-2.19;82.05
74327;BME280;62745;51.060;13.786;2023-03-01T07:17:47;101595.09;;;-2.16;81.70
74327;BME280;62745;51.060;13.786;2023-03-01T07:20:15;101607.47;;;-2.02;81.40
74327;BME280;62745;51.060;13.786;2023-03-01T07:22:40;101604.56;;;-2.14;81.14
74327;BME280;62745;51.060;13.786;2023-03-01T07:25:07;101592.63;;;-2.19;81.50
74327;BME280;62745;51.060;13.786;2023-03-01T07:27:32;101589.88;;;-2.16;82.18
74327;BME280;62745;51.060;13.786;2023-03-01T07:29:58;101577.13;;;-1.89;81.68
74327;BME280;62745;51.060;13.786;2023-03-01T07:32:23;101594.94;;;-1.63;80.42
74327;BME280;62745;51.060;13.786;2023-03-01T07:34:48;101573.59;;;-1.72;79.70
74327;BME280;62745;51.060;13.786;2023-03-01T07:37:13;101584.34;;;-1.77;79.19
74327;BME280;62745;51.060;13.786;2023-03-01T07:39:39;101585.47;;;-1.65;80.02
74327;BME280;62745;51.060;13.786;2023-03-01T07:42:04;101586.13;;;-1.77;80.02
74327;BME280;62745;51.060;13.786;2023-03-01T07:44:29;101581.56;;;-1.74;80.31
74327;BME280;62745;51.060;13.786;2023-03-01T07:46:54;101584.47;;;-1.63;79.96
74327;BME280;62745;51.060;13.786;2023-03-01T07:49:21;101585.94;;;-0.94;77.14
74327;BME280;62745;51.060;13.786;2023-03-01T07:51:47;101581.19;;;-1.35;78.31
74327;BME280;62745;51.060;13.786;2023-03-01T07:54:12;101582.75;;;-1.31;77.78
74327;BME280;62745;51.060;13.786;2023-03-01T07:56:37;101579.78;;;-1.25;77.56
74327;BME280;62745;51.060;13.786;2023-03-01T07:59:02;101591.19;;;-1.26;77.26
74327;BME280;62745;51.060;13.786;2023-03-01T08:01:28;101559.38;;;-1.35;77.40
74327;BME280;62745;51.060;13.786;2023-03-01T08:03:53;101570.56;;;-1.16;76.82
74327;BME280;62745;51.060;13.786;2023-03-01T08:06:18;101563.56;;;-1.15;77.14
74327;BME280;62745;51.060;13.786;2023-03-01T08:08:44;101556.25;;;-0.95;76.23
74327;BME280;62745;51.060;13.786;2023-03-01T08:11:12;101558.59;;;-0.74;76.35
74327;BME280;62745;51.060;13.786;2023-03-01T08:13:38;101556.81;;;-0.74;75.26
74327;BME280;62745;51.060;13.786;2023-03-01T08:16:10;101532.84;;;-0.68;75.82
74327;BME280;62745;51.060;13.786;2023-03-01T08:18:35;101557.31;;;-0.37;76.71
74327;BME280;62745;51.060;13.786;2023-03-01T08:23:29;101548.56;;;0.07;76.74
74327;BME280;62745;51.060;13.786;2023-03-01T08:26:03;101545.94;;;-0.08;76.11
74327;BME280;62745;51.060;13.786;2023-03-01T08:28:28;101536.38;;;0.20;74.67
74327;BME280;62745;51.060;13.786;2023-03-01T08:30:53;101528.59;;;0.18;74.43
74327;BME280;62745;51.060;13.786;2023-03-01T08:33:19;101550.19;;;0.38;74.54
74327;BME280;62745;51.060;13.786;2023-03-01T08:35:44;101527.94;;;0.29;74.30
74327;BME280;62745;51.060;13.786;2023-03-01T08:38:09;101535.19;;;0.67;73.96
74327;BME280;62745;51.060;13.786;2023-03-01T08:40:34;101540.72;;;0.76;73.62
74327;BME280;62745;51.060;13.786;2023-03-01T08:43:00;101522.16;;;0.65;72.79
74327;BME280;62745;51.060;13.786;2023-03-01T08:45:25;101524.94;;;0.76;72.73
74327;BME280;62745;51.060;13.786;2023-03-01T08:47:52;101536.91;;;0.68;71.81
74327;BME280;62745;51.060;13.786;2023-03-01T08:50:18;101519.38;;;0.81;72.39
74327;BME280;62745;51.060;13.786;2023-03-01T08:52:43;101546.50;;;0.96;72.25
74327;BME280;62745;51.060;13.786;2023-03-01T08:55:09;101530.25;;;1.03;73.54
74327;BME280;62745;51.060;13.786;2023-03-01T08:57:34;101519.00;;;1.14;73.08
74327;BME280;62745;51.060;13.786;2023-03-01T08:59:59;101536.50;;;1.55;72.55
74327;BME280;62745;51.060;13.786;2023-03-01T09:02:25;101531.66;;;1.74;71.07
74327;BME280;62745;51.060;13.786;2023-03-01T09:04:50;101514.59;;;1.92;70.00
74327;BME280;62745;51.060;13.786;2023-03-01T09:07:15;101516.38;;;1.79;69.69
74327;BME280;62745;51.060;13.786;2023-03-01T09:09:41;101530.28;;;2.32;68.91
74327;BME280;62745;51.060;13.786;2023-03-01T09:12:06;101527.75;;;2.30;68.71
74327;BME280;62745;51.060;13.786;2023-03-01T09:14:31;101517.13;;;1.81;69.83
74327;BME280;62745;51.060;13.786;2023-03-01T09:16:57;101513.13;;;2.01;69.22
74327;BME280;62745;51.060;13.786;2023-03-01T09:19:22;101497.06;;;2.29;67.98
74327;BME280;62745;51.060;13.786;2023-03-01T09:21:48;101488.28;;;2.54;67.44
74327;BME280;62745;51.060;13.786;2023-03-01T09:24:22;101491.19;;;2.62;68.14
74327;BME280;62745;51.060;13.786;2023-03-01T09:26:48;101482.78;;;2.57;67.15
74327;BME280;62745;51.060;13.786;2023-03-01T09:29:14;101494.06;;;2.83;66.87
74327;BME280;62745;51.060;13.786;2023-03-01T09:31:40;101482.91;;;3.04;67.12
74327;BME280;62745;51.060;13.786;2023-03-01T09:34:06;101478.25;;;3.07;66.39
74327;BME280;62745;51.060;13.786;2023-03-01T09:36:32;101482.22;;;3.48;65.10
74327;BME280;62745;51.060;13.786;2023-03-01T09:38:58;101480.59;;;2.38;65.93
74327;BME280;62745;51.060;13.786;2023-03-01T09:41:50;101484.25;;;2.49;68.16
74327;BME280;62745;51.060;13.786;2023-03-01T09:44:36;101488.84;;;2.70;66.10
74327;BME280;62745;51.060;13.786;2023-03-01T09:47:04;101498.41;;;3.08;65.89
74327;BME280;62745;51.060;13.786;2023-03-01T09:49:32;101494.53;;;3.71;64.84
74327;BME280;62745;51.060;13.786;2023-03-01T09:52:06;101485.88;;;3.23;65.72
74327;BME280;62745;51.060;13.786;2023-03-01T09:54:37;101481.09;;;3.04;65.58
74327;BME280;62745;51.060;13.786;2023-03-01T10:00:00;101482.41;;;4.13;62.06
74327;BME280;62745;51.060;13.786;2023-03-01T10:02:43;101475.09;;;4.28;61.32
74327;BME280;62745;51.060;13.786;2023-03-01T10:05:36;101462.66;;;4.62;60.49
74327;BME280;62745;51.060;13.786;2023-03-01T10:10:36;101472.22;;;4.09;59.80
74327;BME280;62745;51.060;13.786;2023-03-01T10:16:11;101461.50;;;3.99;62.57
74327;BME280;62745;51.060;13.786;2023-03-01T10:18:38;101477.38;;;4.21;61.84
74327;BME280;62745;51.060;13.786;2023-03-01T10:21:17;101452.06;;;4.62;59.02
74327;BME280;62745;51.060;13.786;2023-03-01T10:23:43;101454.59;;;4.96;57.30
74327;BME280;62745;51.060;13.786;2023-03-01T10:26:15;101475.00;;;5.37;57.26
74327;BME280;62745;51.060;13.786;2023-03-01T10:28:52;101471.06;;;5.73;55.37
74327;BME280;62745;51.060;13.786;2023-03-01T10:31:36;101452.38;;;5.74;55.19
74327;BME280;62745;51.060;13.786;2023-03-01T10:34:09;101469.38;;;5.93;53.63
74327;BME280;62745;51.060;13.786;2023-03-01T10:36:36;101441.09;;;5.82;54.78
74327;BME280;62745;51.060;13.786;2023-03-01T10:39:12;101459.28;;;6.08;54.28
74327;BME280;62745;51.060;13.786;2023-03-01T10:41:54;101456.56;;;6.38;52.99
74327;BME280;62745;51.060;13.786;2023-03-01T10:47:03;101435.25;;;6.59;52.95
74327;BME280;62745;51.060;13.786;2023-03-01T10:49:29;101423.50;;;6.52;51.35
74327;BME280;62745;51.060;13.786;2023-03-01T10:51:54;101414.28;;;6.66;50.80
74327;BME280;62745;51.060;13.786;2023-03-01T10:54:31;101430.38;;;6.74;51.00
74327;BME280;62745;51.060;13.786;2023-03-01T10:56:59;101425.34;;;6.80;52.56
74327;BME280;62745;51.060;13.786;2023-03-01T10:59:32;101423.25;;;7.03;50.26
74327;BME280;62745;51.060;13.786;2023-03-01T11:02:22;101425.06;;;7.12;48.50
74327;BME280;62745;51.060;13.786;2023-03-01T11:05:24;101414.84;;;7.17;49.26
74327;BME280;62745;51.060;13.786;2023-03-01T11:07:56;101411.47;;;7.44;48.78
74327;BME280;62745;51.060;13.786;2023-03-01T11:10:27;101421.28;;;7.81;48.24
74327;BME280;62745;51.060;13.786;2023-03-01T11:13:08;101401.53;;;7.83;47.29
74327;BME280;62745;51.060;13.786;2023-03-01T11:15:38;101406.03;;;7.83;46.45
74327;BME280;62745;51.060;13.786;2023-03-01T11:18:03;101401.97;;;7.79;45.41
74327;BME280;62745;51.060;13.786;2023-03-01T11:20:32;101393.00;;;7.90;46.26
74327;BME280;62745;51.060;13.786;2023-03-01T11:23:01;101399.84;;;7.92;45.84
74327;BME280;62745;51.060;13.786;2023-03-01T11:25:33;101392.00;;;8.18;45.81
74327;BME280;62745;51.060;13.786;2023-03-01T11:28:01;101399.09;;;8.27;46.07
74327;BME280;62745;51.060;13.786;2023-03-01T11:30:39;101398.16;;;8.19;45.83
74327;BME280;62745;51.060;13.786;2023-03-01T11:33:20;101401.81;;;8.45;47.21
74327;BME280;62745;51.060;13.786;2023-03-01T11:38:53;101398.31;;;8.44;45.56
74327;BME280;62745;51.060;13.786;2023-03-01T11:41:21;101406.63;;;8.59;46.66
74327;BME280;62745;51.060;13.786;2023-03-01T11:43:52;101400.31;;;8.60;44.75
74327;BME280;62745;51.060;13.786;2023-03-01T11:52:01;101396.41;;;8.09;44.19
74327;BME280;62745;51.060;13.786;2023-03-01T11:54:47;101392.03;;;8.63;42.92
74327;BME280;62745;51.060;13.786;2023-03-01T11:57:51;101392.25;;;8.88;42.26
74327;BME280;62745;51.060;13.786;2023-03-01T12:08:54;101378.38;;;8.84;42.22
74327;BME280;62745;51.060;13.786;2023-03-01T12:11:41;101374.84;;;8.76;43.64
74327;BME280;62745;51.060;13.786;2023-03-01T12:17:36;101381.59;;;9.31;42.74
74327;BME280;62745;51.060;13.786;2023-03-01T12:20:14;101373.97;;;9.37;42.99
74327;BME280;62745;51.060;13.786;2023-03-01T12:22:46;101371.84;;;10.08;42.20
74327;BME280;62745;51.060;13.786;2023-03-01T12:25:34;101355.59;;;9.93;40.49
74327;BME280;62745;51.060;13.786;2023-03-01T12:33:45;101349.53;;;11.56;37.59
74327;BME280;62745;51.060;13.786;2023-03-01T12:36:37;101345.72;;;11.50;36.44
74327;BME280;62745;51.060;13.786;2023-03-01T12:42:40;101334.63;;;12.09;37.25
74327;BME280;62745;51.060;13.786;2023-03-01T12:48:20;101333.81;;;11.61;36.55
74327;BME280;62745;51.060;13.786;2023-03-01T12:50:51;101325.50;;;11.39;38.76
74327;BME280;62745;51.060;13.786;2023-03-01T12:53:31;101329.53;;;12.22;37.45
74327;BME280;62745;51.060;13.786;2023-03-01T12:56:11;101330.09;;;12.17;37.00
74327;BME280;62745;51.060;13.786;2023-03-01T12:58:59;101320.75;;;12.36;35.88
74327;BME280;62745;51.060;13.786;2023-03-01T13:01:51;101318.25;;;12.57;35.31
74327;BME280;62745;51.060;13.786;2023-03-01T13:04:23;101304.66;;;12.59;35.11
74327;BME280;62745;51.060;13.786;2023-03-01T13:07:23;101316.00;;;12.69;34.48
74327;BME280;62745;51.060;13.786;2023-03-01T13:10:06;101309.75;;;12.91;34.64
74327;BME280;62745;51.060;13.786;2023-03-01T13:33:46;101310.25;;;13.62;32.62
74327;BME280;62745;51.060;13.786;2023-03-01T13:39:28;101306.97;;;12.85;33.80
74327;BME280;62745;51.060;13.786;2023-03-01T13:41:56;101300.22;;;13.27;34.62
74327;BME280;62745;51.060;13.786;2023-03-01T13:44:37;101307.94;;;13.44;31.83
74327;BME280;62745;51.060;13.786;2023-03-01T13:49:59;101295.03;;;13.10;34.10
74327;BME280;62745;51.060;13.786;2023-03-01T13:52:47;101295.78;;;12.81;34.37
74327;BME280;62745;51.060;13.786;2023-03-01T13:57:38;101301.53;;;12.93;37.13
74327;BME280;62745;51.060;13.786;2023-03-01T14:00:06;101293.16;;;12.96;34.07
74327;BME280;62745;51.060;13.786;2023-03-01T14:02:32;101291.41;;;12.65;33.23
74327;BME280;62745;51.060;13.786;2023-03-01T14:04:58;101278.91;;;12.73;33.76
74327;BME280;62745;51.060;13.786;2023-03-01T14:07:25;101292.66;;;12.55;33.43
74327;BME280;62745;51.060;13.786;2023-03-01T14:09:58;101294.22;;;12.26;34.42
74327;BME280;62745;51.060;13.786;2023-03-01T14:13:01;101286.78;;;12.05;36.23
74327;BME280;62745;51.060;13.786;2023-03-01T14:18:01;101269.56;;;11.13;37.38